METAR Data
IDs: Format: Raw Decoded Include TAF

Data at: 0029 UTC 19 Nov 2018

METAR for:PACD (Cold Bay Arpt, AK, US)
Text:PACD 190019Z 30020G27KT 10SM SCT022 BKN038 OVC075 06/03 A2963 RMK AO2 PK WND 31029/0005 T00560033 $
Temperature: 5.6°C ( 42°F)
Dewpoint: 3.3°C ( 38°F) [RH = 85%]
Pressure (altimeter):29.63 inches Hg (1003.5 mb)
Winds:from the WNW (300 degrees) at 23 MPH (20 knots; 10.3 m/s) gusting to 31 MPH (27 knots; 13.9 m/s)
Visibility:10 or more sm (16+ km)
Ceiling:3800 feet AGL
Clouds: scattered clouds at 2200 feet AGL, broken clouds at 3800 feet AGL, overcast cloud deck at 7500 feet AGL
QC Flag:SOME DATA ABOVE MAY BE INACCURATE!!!"$" is an indication the sensor requires maintenance.
Text:PACD 190005Z 31023G29KT 10SM SCT023 BKN029 OVC036 06/03 A2963 RMK AO2 PK WND 31029/0005 T00560033 $
Temperature: 5.6°C ( 42°F)
Dewpoint: 3.3°C ( 38°F) [RH = 85%]
Pressure (altimeter):29.63 inches Hg (1003.5 mb)
Winds:from the NW (310 degrees) at 26 MPH (23 knots; 11.8 m/s) gusting to 33 MPH (29 knots; 14.9 m/s)
Visibility:10 or more sm (16+ km)
Ceiling:2900 feet AGL
Clouds: scattered clouds at 2300 feet AGL, broken clouds at 2900 feet AGL, overcast cloud deck at 3600 feet AGL
QC Flag:SOME DATA ABOVE MAY BE INACCURATE!!!"$" is an indication the sensor requires maintenance.
Text:PACD 182353Z 31020G28KT 9SM FEW021 BKN032 OVC070 06/04 A2963 RMK AO2 PK WND 31028/2346 RAE38 SLP033 P0000 60004 T00560039 10061 20028 51016 $
Temperature: 5.6°C ( 42°F)
Dewpoint: 3.9°C ( 39°F) [RH = 89%]
Pressure (altimeter):29.63 inches Hg (1003.5 mb) [Sea level pressure: 1003.3 mb]
Winds:from the NW (310 degrees) at 23 MPH (20 knots; 10.3 m/s) gusting to 32 MPH (28 knots; 14.4 m/s)
Visibility: 9 sm ( 14 km)
Ceiling:3200 feet AGL
Clouds: few clouds at 2100 feet AGL, broken clouds at 3200 feet AGL, overcast cloud deck at 7000 feet AGL
QC Flag:SOME DATA ABOVE MAY BE INACCURATE!!!"$" is an indication the sensor requires maintenance.
Text:PACD 182333Z 31023G27KT 10SM -RA SCT021 BKN033 OVC070 06/04 A2962 RMK AO2 PK WND 30027/2333 P0000 T00560039 $
Temperature: 5.6°C ( 42°F)
Dewpoint: 3.9°C ( 39°F) [RH = 89%]
Pressure (altimeter):29.62 inches Hg (1003.1 mb)
Winds:from the NW (310 degrees) at 26 MPH (23 knots; 11.8 m/s) gusting to 31 MPH (27 knots; 13.9 m/s)
Visibility:10 or more sm (16+ km)
Ceiling:3300 feet AGL
Clouds: scattered clouds at 2100 feet AGL, broken clouds at 3300 feet AGL, overcast cloud deck at 7000 feet AGL
Weather:-RA (light rain)
QC Flag:SOME DATA ABOVE MAY BE INACCURATE!!!"$" is an indication the sensor requires maintenance.
Text:PACD 182253Z 30018KT 10SM -RA BKN016 BKN023 OVC031 05/04 A2962 RMK AO2 RAE08B30 SLP030 P0001 T00500039 $
Temperature: 5.0°C ( 41°F)
Dewpoint: 3.9°C ( 39°F) [RH = 93%]
Pressure (altimeter):29.62 inches Hg (1003.1 mb) [Sea level pressure: 1003.0 mb]
Winds:from the WNW (300 degrees) at 21 MPH (18 knots; 9.3 m/s)
Visibility:10 or more sm (16+ km)
Ceiling:1600 feet AGL
Clouds: broken clouds at 1600 feet AGL, broken clouds at 2300 feet AGL, overcast cloud deck at 3100 feet AGL
Weather:-RA (light rain)
QC Flag:SOME DATA ABOVE MAY BE INACCURATE!!!"$" is an indication the sensor requires maintenance.
Text:PACD 182210Z 30013KT 10SM SCT020 BKN037 OVC050 06/04 A2960 RMK AO2 RAE08 P0000 T00560044 $
Temperature: 5.6°C ( 42°F)
Dewpoint: 4.4°C ( 40°F) [RH = 92%]
Pressure (altimeter):29.60 inches Hg (1002.5 mb)
Winds:from the WNW (300 degrees) at 15 MPH (13 knots; 6.7 m/s)
Visibility:10 or more sm (16+ km)
Ceiling:3700 feet AGL
Clouds: scattered clouds at 2000 feet AGL, broken clouds at 3700 feet AGL, overcast cloud deck at 5000 feet AGL
QC Flag:SOME DATA ABOVE MAY BE INACCURATE!!!"$" is an indication the sensor requires maintenance.
Text:PACD 182153Z 30014KT 10SM -RA SCT020 BKN028 OVC090 05/04 A2960 RMK AO2 RAB35 SLP023 P0000 T00500039 $
Temperature: 5.0°C ( 41°F)
Dewpoint: 3.9°C ( 39°F) [RH = 93%]
Pressure (altimeter):29.60 inches Hg (1002.5 mb) [Sea level pressure: 1002.3 mb]
Winds:from the WNW (300 degrees) at 16 MPH (14 knots; 7.2 m/s)
Visibility:10 or more sm (16+ km)
Ceiling:2800 feet AGL
Clouds: scattered clouds at 2000 feet AGL, broken clouds at 2800 feet AGL, overcast cloud deck at 9000 feet AGL
Weather:-RA (light rain)
QC Flag:SOME DATA ABOVE MAY BE INACCURATE!!!"$" is an indication the sensor requires maintenance.
Text:PACD 182136Z 31014KT 8SM -RA BKN022 BKN028 06/04 A2959 RMK AO2 RAB35 P0000 T00560044 $
Temperature: 5.6°C ( 42°F)
Dewpoint: 4.4°C ( 40°F) [RH = 92%]
Pressure (altimeter):29.59 inches Hg (1002.1 mb)
Winds:from the NW (310 degrees) at 16 MPH (14 knots; 7.2 m/s)
Visibility: 8 sm ( 13 km)
Ceiling:2200 feet AGL
Clouds: broken clouds at 2200 feet AGL, broken clouds at 2800 feet AGL
Weather:-RA (light rain)
QC Flag:SOME DATA ABOVE MAY BE INACCURATE!!!"$" is an indication the sensor requires maintenance.
Text:PACD 182103Z 27010KT 10SM SCT016 SCT025 05/04 A2958 RMK AO2 T00500044 $
Temperature: 5.0°C ( 41°F)
Dewpoint: 4.4°C ( 40°F) [RH = 96%]
Pressure (altimeter):29.58 inches Hg (1001.8 mb)
Winds:from the W (270 degrees) at 12 MPH (10 knots; 5.1 m/s)
Visibility:10 or more sm (16+ km)
Ceiling:at least 12,000 feet AGL
Clouds: scattered clouds at 1600 feet AGL, scattered clouds at 2500 feet AGL
QC Flag:SOME DATA ABOVE MAY BE INACCURATE!!!"$" is an indication the sensor requires maintenance.
Text:PACD 182053Z 26012KT 10SM BKN014 BKN022 05/04 A2958 RMK AO2 RAE36 SLP018 P0003 60003 T00500039 51005 $
Temperature: 5.0°C ( 41°F)
Dewpoint: 3.9°C ( 39°F) [RH = 93%]
Pressure (altimeter):29.58 inches Hg (1001.8 mb) [Sea level pressure: 1001.8 mb]
Winds:from the W (260 degrees) at 14 MPH (12 knots; 6.2 m/s)
Visibility:10 or more sm (16+ km)
Ceiling:1400 feet AGL
Clouds: broken clouds at 1400 feet AGL, broken clouds at 2200 feet AGL
QC Flag:SOME DATA ABOVE MAY BE INACCURATE!!!"$" is an indication the sensor requires maintenance.
Text:PACD 182049Z 25012KT 10SM SCT012 BKN022 05/04 A2958 RMK AO2 RAE36 P0003 $
Temperature: 5.0°C ( 41°F)
Dewpoint: 4.0°C ( 39°F) [RH = 93%]
Pressure (altimeter):29.58 inches Hg (1001.8 mb)
Winds:from the WSW (250 degrees) at 14 MPH (12 knots; 6.2 m/s)
Visibility:10 or more sm (16+ km)
Ceiling:2200 feet AGL
Clouds: scattered clouds at 1200 feet AGL, broken clouds at 2200 feet AGL
QC Flag:SOME DATA ABOVE MAY BE INACCURATE!!!"$" is an indication the sensor requires maintenance.
Text:PACD 182033Z 25012KT 8SM -RA FEW008 OVC013 04/03 A2958 RMK AO2 P0003 T00390033 $
Temperature: 3.9°C ( 39°F)
Dewpoint: 3.3°C ( 38°F) [RH = 96%]
Pressure (altimeter):29.58 inches Hg (1001.8 mb)
Winds:from the WSW (250 degrees) at 14 MPH (12 knots; 6.2 m/s)
Visibility: 8 sm ( 13 km)
Ceiling:1300 feet AGL
Clouds: few clouds at 800 feet AGL, overcast cloud deck at 1300 feet AGL
Weather:-RA (light rain)
QC Flag:SOME DATA ABOVE MAY BE INACCURATE!!!"$" is an indication the sensor requires maintenance.
Text:PACD 182017Z 25009KT 10SM -RA FEW008 SCT012 OVC020 04/03 A2957 RMK AO2 P0003 T00390033 $
Temperature: 3.9°C ( 39°F)
Dewpoint: 3.3°C ( 38°F) [RH = 96%]
Pressure (altimeter):29.57 inches Hg (1001.4 mb)
Winds:from the WSW (250 degrees) at 10 MPH (9 knots; 4.6 m/s)
Visibility:10 or more sm (16+ km)
Ceiling:2000 feet AGL
Clouds: few clouds at 800 feet AGL, scattered clouds at 1200 feet AGL, overcast cloud deck at 2000 feet AGL
Weather:-RA (light rain)
QC Flag:SOME DATA ABOVE MAY BE INACCURATE!!!"$" is an indication the sensor requires maintenance.
Text:PACD 182005Z 26011KT 4SM RA BR FEW014 BKN024 OVC034 04/03 A2958 RMK AO2 P0002 T00390033 $
Temperature: 3.9°C ( 39°F)
Dewpoint: 3.3°C ( 38°F) [RH = 96%]
Pressure (altimeter):29.58 inches Hg (1001.8 mb)
Winds:from the W (260 degrees) at 13 MPH (11 knots; 5.7 m/s)
Visibility: 4 sm ( 6 km)
Ceiling:2400 feet AGL
Clouds: few clouds at 1400 feet AGL, broken clouds at 2400 feet AGL, overcast cloud deck at 3400 feet AGL
Weather:RA BR (moderate rain, mist)
QC Flag:SOME DATA ABOVE MAY BE INACCURATE!!!"$" is an indication the sensor requires maintenance.
Text:PACD 181953Z 26013KT 10SM -RA FEW014 BKN036 OVC043 04/03 A2957 RMK AO2 RAB18 SLP016 P0000 T00390028 $
Temperature: 3.9°C ( 39°F)
Dewpoint: 2.8°C ( 37°F) [RH = 93%]
Pressure (altimeter):29.57 inches Hg (1001.4 mb) [Sea level pressure: 1001.6 mb]
Winds:from the W (260 degrees) at 15 MPH (13 knots; 6.7 m/s)
Visibility:10 or more sm (16+ km)
Ceiling:3600 feet AGL
Clouds: few clouds at 1400 feet AGL, broken clouds at 3600 feet AGL, overcast cloud deck at 4300 feet AGL
Weather:-RA (light rain)
QC Flag:SOME DATA ABOVE MAY BE INACCURATE!!!"$" is an indication the sensor requires maintenance.
Text:PACD 181853Z 25012KT 10SM FEW024 03/02 A2956 RMK AO2 RAE26 SLP012 P0000 T00330017 $
Temperature: 3.3°C ( 38°F)
Dewpoint: 1.7°C ( 35°F) [RH = 89%]
Pressure (altimeter):29.56 inches Hg (1001.1 mb) [Sea level pressure: 1001.2 mb]
Winds:from the WSW (250 degrees) at 14 MPH (12 knots; 6.2 m/s)
Visibility:10 or more sm (16+ km)
Ceiling:at least 12,000 feet AGL
Clouds: few clouds at 2400 feet AGL
QC Flag:SOME DATA ABOVE MAY BE INACCURATE!!!"$" is an indication the sensor requires maintenance.

TAF for:PACD (Cold Bay Arpt, AK, US) issued at 2335 UTC 18 Nov 2018
Text:PACD 182335Z 1900/1924 30018KT P6SM -RA BKN015 BKN025 OVC030
Forecast period:0000 to 2100 UTC 19 November 2018
Forecast type:FROM: standard forecast or significant change
Winds:from the WNW (300 degrees) at 21 MPH (18 knots; 9.3 m/s)
Visibility:6 or more sm (10+ km)
Ceiling:1500 feet AGL
Clouds: broken clouds at 1500 feet AGL, broken clouds at 2500 feet AGL, overcast cloud deck at 3000 feet AGL
Weather:-RA (light rain)
Text:FM192100 30015G25KT P6SM VCSH OVC015
Forecast period:2100 UTC 19 November 2018 to 0000 UTC 20 November 2018
Forecast type:FROM: standard forecast or significant change
Winds:from the WNW (300 degrees) at 17 MPH (15 knots; 7.7 m/s) gusting to 29 MPH (25 knots; 12.9 m/s)
Visibility:6 or more sm (10+ km)
Ceiling:1500 feet AGL
Clouds: overcast cloud deck at 1500 feet AGL
Weather:VCSH (showers in vicinity)